Terminal Aerodrome Forecast
Issued by NWS Cleveland, OH

Home | Current Version | Previous Version | Text Only | Print | Product List | Glossary On
Versions: 1 2 3 4 5 6 7 8 9 10 11 12 13 14 15 16 17
000
FTUS41 KCLE 231139
TAFMFD
TAF
KMFD 231139Z 2312/2412 21012KT P6SM VCSH OVC009
      TEMPO 2312/2314 3SM RA OVC005
     FM231500 22015G22KT 3SM -SHRA BR VCTS BKN012CB OVC018
      TEMPO 2315/2319 1SM TSRA OVC005CB
     FM232100 24010KT 5SM -SHRA OVC018
     FM240000 27007KT P6SM OVC018
     FM240500 29006KT P6SM SCT022=

USA.gov is the U.S. government's official web portal to all federal, state and local government web resources and services.